createdAt,value
2024-01-24T00:02:17.367Z,74.50
2024-01-24T00:05:05.627Z,74.64
2024-01-24T00:07:56.309Z,74.75
2024-01-24T00:10:53.421Z,74.74
2024-01-24T00:13:42.141Z,74.82
2024-01-24T00:16:50.854Z,74.91
2024-01-24T00:20:04.980Z,74.81
2024-01-24T00:23:12.619Z,75.11
2024-01-24T00:26:04.644Z,75.26
2024-01-24T00:28:51.954Z,74.95
2024-01-24T00:31:50.112Z,74.99
2024-01-24T00:34:57.572Z,75.14
2024-01-24T00:37:49.682Z,75.00
2024-01-24T00:40:19.669Z,74.98
2024-01-24T00:43:34.009Z,74.94
2024-01-24T00:46:15.097Z,74.88
2024-01-24T00:49:05.140Z,74.91
2024-01-24T00:52:30.965Z,75.03
2024-01-24T00:55:31.654Z,75.22
2024-01-24T00:58:19.542Z,74.90
2024-01-24T01:00:50.603Z,74.87
2024-01-24T01:03:40.168Z,74.74
2024-01-24T01:06:28.405Z,74.96
2024-01-24T01:08:57.674Z,75.13
2024-01-24T01:11:45.426Z,75.26
2024-01-24T01:14:12.923Z,75.26
2024-01-24T01:16:44.599Z,75.26
2024-01-24T01:19:13.720Z,75.22
2024-01-24T01:21:42.437Z,75.36
2024-01-24T01:24:11.472Z,75.67
2024-01-24T01:26:38.888Z,75.19
2024-01-24T01:29:10.914Z,75.19
2024-01-24T01:31:38.331Z,75.18
2024-01-24T01:34:05.777Z,75.43
2024-01-24T01:36:33.499Z,75.58
2024-01-24T01:39:00.997Z,75.58
2024-01-24T01:41:28.919Z,75.43
2024-01-24T01:43:56.331Z,75.71
2024-01-24T01:46:27.388Z,75.79
2024-01-24T01:48:58.488Z,75.55
2024-01-24T01:51:28.259Z,75.27
2024-01-24T01:53:57.450Z,75.09
2024-01-24T01:56:26.653Z,75.18
2024-01-24T01:58:54.704Z,75.18
2024-01-24T02:04:18.441Z,75.36
2024-01-24T02:06:46.178Z,75.71
2024-01-24T02:09:13.808Z,75.85
2024-01-24T02:11:45.326Z,75.62
2024-01-24T02:14:13.952Z,75.17
2024-01-24T02:16:41.552Z,75.30
2024-01-24T02:19:09.114Z,75.15
2024-01-24T02:21:37.652Z,75.37
2024-01-24T02:24:13.913Z,74.84
2024-01-24T02:26:41.049Z,74.98
2024-01-24T02:29:08.283Z,75.43
2024-01-24T02:31:35.836Z,75.81
2024-01-24T02:34:03.519Z,75.48
2024-01-24T02:36:30.918Z,75.30
2024-01-24T02:38:58.999Z,75.54
2024-01-24T02:41:26.674Z,75.14
2024-01-24T02:43:54.010Z,75.23
2024-01-24T02:46:21.399Z,74.79
2024-01-24T02:48:48.642Z,74.86
2024-01-24T02:51:27.954Z,75.04
2024-01-24T02:53:55.398Z,75.26
2024-01-24T02:56:22.917Z,75.28
2024-01-24T02:58:50.386Z,75.37
2024-01-24T03:01:17.912Z,75.25
2024-01-24T03:03:46.051Z,75.28
2024-01-24T03:06:13.521Z,75.38
2024-01-24T03:08:58.885Z,75.59
2024-01-24T03:11:26.600Z,75.30
2024-01-24T03:13:53.898Z,75.25
2024-01-24T03:16:21.309Z,75.33
2024-01-24T03:18:49.685Z,75.50
2024-01-24T03:21:19.228Z,75.27
2024-01-24T03:23:46.533Z,75.34
2024-01-24T03:26:16.925Z,75.54
2024-01-24T03:28:44.523Z,75.64
2024-01-24T03:31:12.156Z,75.51
2024-01-24T03:33:39.407Z,75.62
2024-01-24T03:36:06.836Z,75.42
2024-01-24T03:38:34.788Z,75.33
2024-01-24T03:41:02.288Z,75.36
2024-01-24T03:43:29.590Z,75.43
2024-01-24T03:45:57.216Z,75.35
2024-01-24T03:48:24.899Z,75.17
2024-01-24T03:50:53.438Z,75.21
2024-01-24T03:53:20.787Z,75.04
2024-01-24T03:55:48.061Z,74.94
2024-01-24T03:58:15.619Z,74.97
2024-01-24T04:00:42.998Z,74.80
2024-01-24T04:03:10.392Z,74.77
2024-01-24T04:05:37.715Z,74.63
2024-01-24T04:08:05.465Z,74.60
2024-01-24T04:10:33.048Z,74.57
2024-01-24T04:13:00.268Z,74.58
2024-01-24T04:15:28.729Z,74.65
2024-01-24T04:17:56.915Z,74.55
2024-01-24T04:20:24.244Z,74.58
2024-01-24T04:22:51.403Z,74.61
2024-01-24T04:25:19.375Z,74.56
2024-01-24T04:27:49.608Z,74.46
2024-01-24T04:30:17.226Z,74.51
2024-01-24T04:32:45.401Z,74.54
2024-01-24T04:35:13.551Z,74.44
2024-01-24T04:37:41.376Z,74.58
2024-01-24T04:40:09.431Z,74.53
2024-01-24T04:42:37.180Z,74.40
2024-01-24T04:45:04.743Z,74.38
2024-01-24T04:47:32.313Z,74.35
2024-01-24T04:50:00.007Z,74.43
2024-01-24T04:52:27.228Z,74.27
2024-01-24T04:54:54.524Z,74.19
2024-01-24T04:57:21.761Z,74.17
2024-01-24T04:59:55.749Z,74.33
2024-01-24T05:02:24.833Z,74.15
2024-01-24T05:04:52.165Z,74.07
2024-01-24T05:07:19.658Z,73.97
2024-01-24T05:09:47.113Z,74.02
2024-01-24T05:12:14.676Z,74.08
2024-01-24T05:14:42.084Z,73.97
2024-01-24T05:17:09.295Z,73.95
2024-01-24T05:19:37.274Z,74.01
2024-01-24T05:22:04.724Z,73.93
2024-01-24T05:24:32.107Z,74.03
2024-01-24T05:26:59.405Z,73.97
2024-01-24T05:29:27.136Z,73.88
2024-01-24T05:31:54.670Z,73.85
2024-01-24T05:34:21.816Z,73.81
2024-01-24T05:37:04.286Z,73.88
2024-01-24T05:39:32.425Z,74.13
2024-01-24T05:42:01.204Z,74.16
2024-01-24T05:44:32.730Z,74.20
2024-01-24T05:47:00.689Z,74.78
2024-01-24T05:49:31.398Z,75.40
2024-01-24T05:52:10.301Z,75.64
2024-01-24T05:54:57.804Z,76.00
2024-01-24T05:57:26.397Z,76.13
2024-01-24T05:59:53.741Z,76.04
2024-01-24T06:02:21.422Z,76.50
2024-01-24T06:04:49.959Z,76.46
2024-01-24T06:07:20.752Z,76.32
2024-01-24T08:04:34.847Z,80.89
2024-01-24T08:08:43.909Z,81.18
2024-01-24T08:12:38.010Z,81.21
2024-01-24T08:17:00.754Z,81.27
2024-01-24T08:24:20.605Z,81.19
2024-01-24T08:28:12.582Z,81.30
2024-01-24T08:32:03.282Z,81.53
2024-01-24T08:35:53.182Z,81.29
2024-01-24T08:39:41.088Z,81.37
2024-01-24T08:43:28.831Z,81.60
2024-01-24T08:47:16.565Z,82.26
2024-01-24T08:51:04.271Z,82.26
2024-01-24T08:54:55.034Z,82.24
2024-01-24T08:58:42.868Z,82.15
2024-01-24T09:01:53.328Z,82.25
2024-01-24T09:05:43.470Z,82.45
2024-01-24T09:09:40.959Z,82.50
2024-01-24T09:13:33.383Z,82.53
2024-01-24T09:17:22.018Z,82.25
2024-01-24T09:21:11.522Z,82.33
2024-01-24T09:24:59.577Z,82.52
2024-01-24T09:28:47.065Z,82.79
2024-01-24T09:32:34.962Z,82.77
2024-01-24T09:36:22.750Z,83.55
2024-01-24T09:40:12.084Z,83.23
2024-01-24T09:43:59.760Z,83.13
2024-01-24T09:47:47.794Z,83.13
2024-01-24T09:51:36.343Z,82.97
2024-01-24T09:55:25.630Z,83.33
2024-01-24T09:59:13.437Z,83.64
2024-01-24T10:03:01.365Z,83.56
2024-01-24T10:06:52.186Z,83.57
2024-01-24T10:10:42.605Z,83.79
2024-01-24T10:14:32.601Z,84.19
2024-01-24T10:18:23.378Z,84.13
2024-01-24T10:22:11.421Z,84.04
2024-01-24T10:26:00.218Z,84.12
2024-01-24T10:29:48.105Z,84.00
2024-01-24T10:33:36.167Z,84.04
2024-01-24T10:37:25.566Z,83.80
2024-01-24T10:41:16.101Z,83.64
2024-01-24T10:45:09.656Z,83.72
2024-01-24T10:48:58.411Z,83.74
2024-01-24T10:52:47.535Z,83.53
2024-01-24T10:56:35.076Z,83.70
2024-01-24T11:00:26.946Z,83.59
2024-01-24T11:04:14.719Z,83.47
2024-01-24T11:08:05.376Z,83.94
2024-01-24T11:11:53.864Z,83.72
2024-01-24T11:15:44.875Z,83.68
2024-01-24T11:19:35.420Z,83.34
2024-01-24T11:23:23.272Z,83.11
2024-01-24T11:27:12.924Z,83.17
2024-01-24T11:30:40.822Z,83.46
2024-01-24T11:34:27.751Z,83.73
2024-01-24T11:38:26.158Z,83.10
2024-01-24T11:42:12.349Z,83.18
2024-01-24T11:46:18.544Z,82.98
2024-01-24T11:50:11.113Z,82.95
2024-01-24T11:54:02.027Z,82.67
2024-01-24T11:57:50.106Z,82.91
2024-01-24T12:01:02.394Z,82.65
2024-01-24T12:04:51.279Z,82.68
2024-01-24T12:08:39.111Z,82.69
2024-01-24T12:12:28.347Z,82.88
2024-01-24T12:16:16.059Z,83.22
2024-01-24T12:20:04.426Z,82.88
2024-01-24T12:23:55.301Z,82.97
2024-01-24T12:27:43.269Z,82.55
2024-01-24T12:31:32.377Z,82.68
2024-01-24T12:35:23.962Z,82.63
2024-01-24T12:39:10.531Z,82.30
2024-01-24T12:42:58.400Z,82.36
2024-01-24T12:46:48.899Z,82.27
2024-01-24T12:50:36.736Z,82.14
2024-01-24T12:54:24.324Z,81.71
2024-01-24T12:58:12.292Z,81.36
2024-01-24T13:01:59.984Z,81.18
2024-01-24T13:05:51.203Z,81.27
2024-01-24T13:09:40.112Z,81.27
2024-01-24T13:13:24.376Z,81.11
2024-01-24T13:17:12.108Z,81.16
2024-01-24T13:21:00.259Z,80.89
2024-01-24T13:24:53.773Z,80.65
2024-01-24T13:28:38.052Z,80.75
2024-01-24T13:32:28.051Z,80.77
2024-01-24T13:36:17.025Z,80.51
2024-01-24T13:40:05.095Z,80.78
2024-01-24T13:43:54.737Z,80.72
2024-01-24T13:47:22.073Z,80.58
2024-01-24T13:51:09.952Z,80.71
2024-01-24T13:54:57.688Z,79.78
2024-01-24T13:58:47.149Z,79.84
2024-01-24T14:06:21.803Z,80.73
2024-01-24T14:10:09.728Z,80.49
2024-01-24T14:13:57.308Z,80.83
2024-01-24T14:17:45.070Z,80.79
2024-01-24T14:21:32.828Z,80.94
2024-01-24T14:25:20.594Z,81.29
2024-01-24T14:29:08.252Z,81.12
2024-01-24T14:32:56.578Z,80.87
2024-01-24T14:36:49.697Z,80.93
2024-01-24T14:40:38.034Z,80.92
2024-01-24T14:44:25.532Z,80.87
2024-01-24T14:48:13.485Z,80.89
2024-01-24T14:52:03.990Z,80.88
2024-01-24T14:55:51.678Z,80.62
2024-01-24T14:59:42.937Z,80.50
2024-01-24T15:03:30.928Z,80.53
2024-01-24T15:07:18.476Z,80.49
2024-01-24T15:11:06.289Z,80.53
2024-01-24T15:14:53.899Z,80.62
2024-01-24T15:18:41.709Z,80.45
2024-01-24T15:22:30.564Z,80.30
2024-01-24T15:26:18.343Z,80.17
2024-01-24T15:30:07.274Z,80.23
2024-01-24T15:33:54.595Z,80.13
2024-01-24T15:37:42.264Z,79.97
2024-01-24T15:41:30.479Z,79.97
2024-01-24T15:45:18.116Z,80.05
2024-01-24T15:49:06.576Z,79.97
2024-01-24T15:52:54.454Z,79.80
2024-01-24T15:56:44.990Z,79.79
2024-01-24T16:00:33.531Z,79.71
2024-01-24T16:04:20.699Z,79.56
2024-01-24T16:08:08.318Z,79.46
2024-01-24T16:11:57.409Z,79.36
2024-01-24T16:15:46.369Z,79.34
2024-01-24T16:19:34.460Z,79.36
2024-01-24T16:23:21.879Z,79.17
2024-01-24T16:27:09.947Z,79.18
2024-01-24T16:34:42.494Z,79.07
2024-01-24T16:38:30.206Z,78.95
2024-01-24T16:42:18.142Z,78.94
2024-01-24T16:46:06.700Z,78.95
2024-01-24T16:49:54.485Z,79.05
2024-01-24T16:53:41.999Z,79.00
2024-01-24T16:57:29.802Z,78.86
2024-01-24T17:01:17.633Z,78.62
2024-01-24T17:05:05.130Z,78.62
2024-01-24T17:08:52.655Z,78.48
2024-01-24T17:12:40.350Z,78.43
2024-01-24T17:16:28.449Z,78.23
2024-01-24T17:20:16.520Z,78.19
2024-01-24T17:24:04.776Z,78.14
2024-01-24T17:27:52.752Z,77.90
2024-01-24T17:31:40.687Z,77.73
2024-01-24T17:35:28.560Z,77.58
2024-01-24T17:39:18.962Z,77.38
2024-01-24T17:43:07.343Z,77.08
2024-01-24T17:46:55.080Z,76.89
2024-01-24T17:50:43.373Z,76.62
2024-01-24T17:54:35.223Z,76.33
2024-01-24T17:58:22.632Z,75.78
2024-01-24T18:02:10.520Z,75.55
2024-01-24T18:05:58.782Z,75.37
2024-01-24T18:09:46.681Z,74.93
2024-01-24T18:13:34.737Z,74.33
2024-01-24T18:17:23.812Z,74.15
2024-01-24T18:20:13.861Z,73.85
2024-01-24T18:22:45.358Z,73.62
2024-01-24T18:25:33.388Z,73.58
2024-01-24T18:28:00.819Z,73.39
2024-01-24T18:30:34.687Z,73.31
2024-01-24T18:33:20.565Z,73.35
2024-01-24T18:36:11.172Z,73.43
2024-01-24T18:38:54.219Z,73.46
2024-01-24T18:42:41.483Z,73.42
2024-01-24T18:46:29.230Z,73.40
2024-01-24T18:50:19.612Z,72.98
2024-01-24T18:54:07.168Z,72.88
2024-01-24T18:57:58.051Z,72.70
2024-01-24T19:01:48.657Z,72.56
2024-01-24T19:05:38.671Z,72.41
2024-01-24T19:09:23.564Z,72.25
2024-01-24T19:12:51.914Z,71.97
2024-01-24T19:16:38.858Z,71.78
2024-01-24T19:20:29.374Z,71.82
2024-01-24T19:24:18.685Z,71.93
2024-01-24T19:28:06.984Z,72.10
2024-01-24T19:31:55.820Z,71.99
2024-01-24T19:35:53.519Z,72.01
2024-01-24T19:39:41.377Z,71.88
2024-01-24T19:43:32.075Z,71.78
2024-01-24T19:47:19.991Z,71.55
2024-01-24T19:51:09.258Z,71.26
2024-01-24T19:54:56.961Z,71.23
2024-01-24T19:58:44.954Z,71.25
2024-01-24T20:02:32.615Z,71.17
2024-01-24T20:06:20.878Z,71.14
2024-01-24T20:10:09.689Z,71.10
2024-01-24T20:13:57.605Z,71.01
2024-01-24T20:17:45.634Z,70.86
2024-01-24T20:21:33.873Z,70.71
2024-01-24T20:25:24.489Z,70.56
2024-01-24T20:29:11.843Z,70.33
2024-01-24T20:33:04.145Z,70.30
2024-01-24T20:40:38.946Z,69.96
2024-01-24T20:44:27.335Z,69.79
2024-01-24T20:48:16.583Z,69.77
2024-01-24T20:55:49.352Z,69.71
2024-01-24T20:59:37.227Z,69.74
2024-01-24T21:03:25.855Z,69.75
2024-01-24T21:07:14.479Z,69.81
2024-01-24T21:11:04.135Z,69.80
2024-01-24T21:14:50.312Z,69.86
2024-01-24T21:18:39.075Z,69.78
2024-01-24T21:22:26.275Z,69.74
2024-01-24T21:30:01.952Z,69.81
2024-01-24T21:33:49.530Z,69.90
2024-01-24T21:37:38.595Z,70.41
2024-01-24T21:41:26.334Z,70.84
2024-01-24T21:45:08.956Z,71.64
2024-01-24T21:47:37.677Z,71.92
2024-01-24T21:50:07.574Z,71.92
2024-01-24T21:52:35.183Z,71.86
2024-01-24T21:55:03.089Z,71.71
2024-01-24T21:57:53.781Z,71.70
2024-01-24T22:00:21.392Z,71.77
2024-01-24T22:02:53.943Z,71.76
2024-01-24T22:05:22.925Z,71.69
2024-01-24T22:07:51.578Z,71.55
2024-01-24T22:10:19.106Z,71.50
2024-01-24T22:12:53.651Z,71.49
2024-01-24T22:15:21.288Z,71.43
2024-01-24T22:17:48.492Z,71.30
2024-01-24T22:20:15.997Z,71.17
2024-01-24T22:25:16.523Z,71.02
2024-01-24T22:28:42.481Z,70.93
2024-01-24T22:31:34.626Z,70.90
2024-01-24T22:34:25.326Z,70.78
2024-01-24T22:37:01.038Z,70.71
2024-01-24T22:39:29.622Z,70.59
2024-01-24T22:42:19.938Z,70.31
2024-01-24T22:45:17.311Z,70.09
2024-01-24T22:47:53.993Z,69.91
2024-01-24T22:50:29.451Z,69.35
2024-01-24T22:52:57.136Z,69.05
2024-01-24T22:55:45.029Z,68.90
2024-01-24T22:58:17.367Z,68.66
2024-01-24T23:01:08.599Z,68.39
2024-01-24T23:03:54.194Z,68.38
2024-01-24T23:09:42.005Z,68.32
2024-01-24T23:12:10.612Z,68.16
2024-01-24T23:14:58.210Z,68.06
2024-01-24T23:20:50.950Z,68.00
2024-01-24T23:23:36.924Z,68.04
2024-01-24T23:26:22.830Z,68.00
2024-01-24T23:29:29.906Z,67.99
2024-01-24T23:31:59.010Z,67.83
2024-01-24T23:34:41.610Z,67.61
2024-01-24T23:37:36.510Z,67.68
2024-01-24T23:43:15.068Z,67.47
2024-01-24T23:46:58.847Z,67.43
2024-01-24T23:50:19.204Z,67.51
2024-01-24T23:56:10.651Z,67.58
